Gulf Nomad — C6DL8 — position and weather

sailwx.info

Track history (hours):
 
Tides and Currents Weather Stations Pressure Air Temp Water Temp Dewpoint Dewpoint Depression Visibility Wind Speed Wind Dir Waves Ship Positions

Gulf Nomad

Last reported at 2017-Oct-17 08:28 UTC. Time now 2017-Oct-19 11:23 UTC.
Position N 48°39' W 002°01'.

Type: Tanker. MMSI: 308951000.

Date/timePositionNaut miles runAvg speedWind from/ knotsBaromVisibWave heightAir tempDewpointWater temp
2017-Oct-17 08:28N 48°39' W 002°01'0 0.0
2017-Oct-17 07:52N 48°39' W 002°01'0 0.0
2017-Oct-17 07:07N 48°39' W 002°01'0 0.0
2017-Oct-17 06:52N 48°39' W 002°01'0 0.0
2017-Oct-17 06:28N 48°39' W 002°01'0 0.0
2017-Oct-17 05:55N 48°39' W 002°01'0 0.0
2017-Oct-17 05:25N 48°39' W 002°01'0 0.0
2017-Oct-17 04:55N 48°39' W 002°01'0 0.0
2017-Oct-17 04:28N 48°39' W 002°01'0 0.0
2017-Oct-17 03:58N 48°39' W 002°01'0 0.0
2017-Oct-17 03:13N 48°39' W 002°01'0 0.0
2017-Oct-17 02:55N 48°39' W 002°01'0 0.0
2017-Oct-17 02:28N 48°39' W 002°01'0 0.0
2017-Oct-17 01:55N 48°39' W 002°01'0 0.0
2017-Oct-17 01:28N 48°39' W 002°01'0 0.0
2017-Oct-16 23:55N 48°39' W 002°01'0 0.0
2017-Oct-16 23:25N 48°39' W 002°01'0 0.0
2017-Oct-16 22:52N 48°39' W 002°01'0 0.0
2017-Oct-16 22:30N 48°39' W 002°01'0 0.0
2017-Oct-16 06:21N 48°39' W 002°01'0 0.0
2017-Oct-16 05:57N 48°39' W 002°01'0 0.0
2017-Oct-16 05:30N 48°39' W 002°01'0 0.1
2017-Oct-16 04:49N 48°39' W 002°01'0 1.1
2017-Oct-16 04:22N 48°39' W 002°01'0 0.8
2017-Oct-16 03:48N 48°38' W 002°02'13 7.7
2017-Oct-16 02:10N 48°49' W 002°13'5 5.6
2017-Oct-16 01:13N 48°44' W 002°08'3 7.5
2017-Oct-16 00:46N 48°46' W 002°13'20 7.1
2017-Oct-15 21:56N 49°01' W 002°32'3 6.3
2017-Oct-15 21:29N 49°03' W 002°35'3 6.0
2017-Oct-15 20:59N 49°06' W 002°38'3 5.4
2017-Oct-15 20:25N 49°08' W 002°42'49 7.3
2017-Oct-15 13:38N 49°57' W 002°56'10511.1
2017-Oct-15 04:06N 50°29' W 000°19'1 9.5
2017-Oct-15 04:00N 50°29' W 000°18'6 9.7
2017-Oct-15 03:22N 50°31' W 000°09'410.0
2017-Oct-15 03:00N 50°32' W 000°03'510.3
2017-Oct-15 02:30N 50°33' E 000°05'510.8
2017-Oct-15 02:00N 50°34' E 000°13'811.3
2017-Oct-15 01:19N 50°36' E 000°25'411.7
2017-Oct-15 01:00N 50°37' E 000°30'611.8
2017-Oct-15 00:30N 50°40' E 000°38'611.9
2017-Oct-15 00:00N 50°44' E 000°46'611.9
2017-Oct-14 23:30N 50°47' E 000°54'2011.1
2017-Oct-14 21:42N 50°59' E 001°19'210.3
2017-Oct-14 21:29N 51°01' E 001°21'5 9.9
2017-Oct-14 20:59N 51°04' E 001°27'5 9.7
2017-Oct-14 20:30N 51°07' E 001°33'5 9.4
2017-Oct-14 20:00N 51°10' E 001°38'5 9.4
2017-Oct-14 19:30N 51°13' E 001°44'5 9.7
2017-Oct-14 19:00N 51°17' E 001°48'510.2
2017-Oct-14 18:30N 51°22' E 001°52'510.7
2017-Oct-14 18:00N 51°27' E 001°56'510.5
2017-Oct-14 17:30N 51°30' E 002°02'611.8
2017-Oct-14 17:00N 51°34' E 002°09'611.8
2017-Oct-14 16:29N 51°39' E 002°16'6510.3
2017-Oct-14 10:11N 52°02' E 003°54'2 8.2
2017-Oct-14 09:53N 52°01' E 003°57'410.0
2017-Oct-14 09:30N 51°60' E 004°03'5 9.8
2017-Oct-14 09:00N 51°57' E 004°10'5 9.3
2017-Oct-14 08:30N 51°54' E 004°16'4 8.8
2017-Oct-14 08:00N 51°51' E 004°21'5 9.1
2017-Oct-14 07:30N 51°50' E 004°28'4 8.6
2017-Oct-14 07:00N 51°49' E 004°34'3 5.1
2017-Oct-14 06:31N 51°48' E 004°38'0 0.0
2017-Oct-14 06:00N 51°48' E 004°38'0 0.0
2017-Oct-14 05:30N 51°48' E 004°38'0 0.0
2017-Oct-14 05:00N 51°48' E 004°38'0 0.0
2017-Oct-14 04:19N 51°48' E 004°38'0 0.0
2017-Oct-14 03:58N 51°48' E 004°38'0 0.0
2017-Oct-14 03:30N 51°48' E 004°38'0 0.0
2017-Oct-14 03:00N 51°48' E 004°38'0 0.0
2017-Oct-14 02:31N 51°48' E 004°38'0 0.0
2017-Oct-14 02:01N 51°48' E 004°38'0 0.0
2017-Oct-14 01:22N 51°48' E 004°38'0 0.0
2017-Oct-14 00:59N 51°48' E 004°38'0 0.0
2017-Oct-14 00:30N 51°48' E 004°38'0 0.0
2017-Oct-14 00:00N 51°48' E 004°38'0 0.0
2017-Oct-13 23:31N 51°48' E 004°38'0 0.0
2017-Oct-13 23:00N 51°48' E 004°38'0 0.0
2017-Oct-13 22:30N 51°48' E 004°38'0 0.0
2017-Oct-13 21:52N 51°48' E 004°38'0 0.0
2017-Oct-13 21:28N 51°48' E 004°38'0 0.0
2017-Oct-13 20:58N 51°48' E 004°38'0 0.0
2017-Oct-13 20:31N 51°48' E 004°38'0 0.0
2017-Oct-13 19:58N 51°48' E 004°38'0 0.0
2017-Oct-13 19:30N 51°48' E 004°38'0 0.0
2017-Oct-13 19:01N 51°48' E 004°38'0 0.0
2017-Oct-13 18:24N 51°48' E 004°38'0 0.0
2017-Oct-13 18:00N 51°48' E 004°38'0 0.0
2017-Oct-13 17:21N 51°48' E 004°38'0 0.0
2017-Oct-13 17:01N 51°48' E 004°38'0 0.0
2017-Oct-13 16:28N 51°48' E 004°38'0 0.0
2017-Oct-13 15:55N 51°48' E 004°38'0 0.0
2017-Oct-13 15:26N 51°48' E 004°38'0 0.0
2017-Oct-13 15:00N 51°48' E 004°38'0 0.0
2017-Oct-13 14:30N 51°48' E 004°38'0 0.0
2017-Oct-13 14:00N 51°48' E 004°38'0 0.0
2017-Oct-13 13:23N 51°48' E 004°38'0 0.0
2017-Oct-13 13:00N 51°48' E 004°38'0 0.0
2017-Oct-13 12:30N 51°48' E 004°38'0 0.0
2017-Oct-13 11:59N 51°48' E 004°38'0 0.0
2017-Oct-13 11:30N 51°48' E 004°38'0 0.0
2017-Oct-13 10:57N 51°48' E 004°38'0 0.0
2017-Oct-13 10:30N 51°48' E 004°38'0 0.0
2017-Oct-13 10:00N 51°48' E 004°38'0 0.0
2017-Oct-13 09:30N 51°48' E 004°38'0 0.0
2017-Oct-13 09:00N 51°48' E 004°38'0 0.0
2017-Oct-13 08:30N 51°48' E 004°38'0 0.0
2017-Oct-13 08:01N 51°48' E 004°38'0 0.0
2017-Oct-13 07:30N 51°48' E 004°38'0 0.0
2017-Oct-13 06:59N 51°48' E 004°38'0 0.0
2017-Oct-13 06:28N 51°48' E 004°38'0 0.0
2017-Oct-13 05:44N 51°48' E 004°38'0 0.0
2017-Oct-13 05:31N 51°48' E 004°38'0 0.0
2017-Oct-13 05:01N 51°48' E 004°38'0 0.0
2017-Oct-13 04:27N 51°48' E 004°38'0 0.0
2017-Oct-13 03:52N 51°48' E 004°38'0 0.0
2017-Oct-13 03:30N 51°48' E 004°38'0 0.0
2017-Oct-13 02:59N 51°48' E 004°38'0 0.0
2017-Oct-13 02:25N 51°48' E 004°38'0 0.0
2017-Oct-13 01:58N 51°48' E 004°38'0 0.0
2017-Oct-13 01:28N 51°48' E 004°38'0 0.0
2017-Oct-13 01:00N 51°48' E 004°38'0 0.0
2017-Oct-13 00:24N 51°48' E 004°38'0 0.0
2017-Oct-13 00:01N 51°48' E 004°38'0 0.0
2017-Oct-12 23:30N 51°48' E 004°38'1 1.7
2017-Oct-12 23:00N 51°48' E 004°37'510.1
2017-Oct-12 22:30N 51°50' E 004°30'611.2
2017-Oct-12 22:01N 51°51' E 004°21'510.0
2017-Oct-12 21:30N 51°55' E 004°15'510.7
2017-Oct-12 21:00N 51°58' E 004°08'510.9
2017-Oct-12 20:30N 51°60' E 003°60'612.6
2017-Oct-12 20:00N 52°00' E 003°50'5912.0
2017-Oct-12 15:05N 51°35' E 002°23'110.6
2017-Oct-12 15:00N 51°35' E 002°22'510.0
2017-Oct-12 14:30N 51°31' E 002°16'5 9.5
2017-Oct-12 14:00N 51°28' E 002°11'5 9.2
2017-Oct-12 13:29N 51°24' E 002°06'4 8.5
2017-Oct-12 12:59N 51°24' E 001°59'510.2
2017-Oct-12 12:30N 51°26' E 001°52'510.0
2017-Oct-12 12:00N 51°28' E 001°45'510.2
2017-Oct-12 11:30N 51°28' E 001°37'510.5
2017-Oct-12 11:00N 51°28' E 001°28'911.7
2017-Oct-12 10:15N 51°29' E 001°14'311.6
2017-Oct-12 10:00N 51°29' E 001°10'510.5
2017-Oct-12 09:30N 51°29' E 001°01'2 0.0
2017-Oct-10 09:05N 51°30' E 001°04'1 9.1
2017-Oct-10 09:00N 51°30' E 001°05'4 8.9
2017-Oct-10 08:30N 51°29' E 001°12'5 8.5
2017-Oct-10 07:52N 51°28' E 001°21'3 8.1
2017-Oct-10 07:30N 51°27' E 001°25'4 8.5
2017-Oct-10 07:00N 51°25' E 001°31'4 7.5
2017-Oct-10 06:30N 51°23' E 001°36'4 7.2
2017-Oct-10 06:00N 51°22' E 001°41'3 5.3
2017-Oct-10 05:30N 51°22' E 001°45'4 7.8
2017-Oct-10 05:00N 51°18' E 001°42'4 8.4
2017-Oct-10 04:30N 51°15' E 001°39'4 8.2
2017-Oct-10 04:00N 51°11' E 001°38'5 9.5
2017-Oct-10 03:30N 51°06' E 001°41'  
Track history (hours):
 
Tides and Currents Weather Stations Pressure Air Temp Water Temp Dewpoint Dewpoint Depression Visibility Wind Speed Wind Dir Waves Ship Positions

Gulf Nomad

Last reported at 2017-Oct-17 08:28 UTC. Time now 2017-Oct-19 11:23 UTC.
Position N 48°39' W 002°01'.

Type: Tanker. MMSI: 308951000.

Date/timePositionNaut miles runAvg speedWind from/ knotsBaromVisibWave heightAir tempDewpointWater temp
2017-Oct-17 08:28N 48°39' W 002°01'0 0.0
2017-Oct-17 07:52N 48°39' W 002°01'0 0.0
2017-Oct-17 07:07N 48°39' W 002°01'0 0.0
2017-Oct-17 06:52N 48°39' W 002°01'0 0.0
2017-Oct-17 06:28N 48°39' W 002°01'0 0.0
2017-Oct-17 05:55N 48°39' W 002°01'0 0.0
2017-Oct-17 05:25N 48°39' W 002°01'0 0.0
2017-Oct-17 04:55N 48°39' W 002°01'0 0.0
2017-Oct-17 04:28N 48°39' W 002°01'0 0.0
2017-Oct-17 03:58N 48°39' W 002°01'0 0.0
2017-Oct-17 03:13N 48°39' W 002°01'0 0.0
2017-Oct-17 02:55N 48°39' W 002°01'0 0.0
2017-Oct-17 02:28N 48°39' W 002°01'0 0.0
2017-Oct-17 01:55N 48°39' W 002°01'0 0.0
2017-Oct-17 01:28N 48°39' W 002°01'0 0.0
2017-Oct-16 23:55N 48°39' W 002°01'0 0.0
2017-Oct-16 23:25N 48°39' W 002°01'0 0.0
2017-Oct-16 22:52N 48°39' W 002°01'0 0.0
2017-Oct-16 22:30N 48°39' W 002°01'0 0.0
2017-Oct-16 06:21N 48°39' W 002°01'0 0.0
2017-Oct-16 05:57N 48°39' W 002°01'0 0.0
2017-Oct-16 05:30N 48°39' W 002°01'0 0.1
2017-Oct-16 04:49N 48°39' W 002°01'0 1.1
2017-Oct-16 04:22N 48°39' W 002°01'0 0.8
2017-Oct-16 03:48N 48°38' W 002°02'13 7.7
2017-Oct-16 02:10N 48°49' W 002°13'5 5.6
2017-Oct-16 01:13N 48°44' W 002°08'3 7.5
2017-Oct-16 00:46N 48°46' W 002°13'20 7.1
2017-Oct-15 21:56N 49°01' W 002°32'3 6.3
2017-Oct-15 21:29N 49°03' W 002°35'3 6.0
2017-Oct-15 20:59N 49°06' W 002°38'3 5.4
2017-Oct-15 20:25N 49°08' W 002°42'49 7.3
2017-Oct-15 13:38N 49°57' W 002°56'10511.1
2017-Oct-15 04:06N 50°29' W 000°19'1 9.5
2017-Oct-15 04:00N 50°29' W 000°18'6 9.7
2017-Oct-15 03:22N 50°31' W 000°09'410.0
2017-Oct-15 03:00N 50°32' W 000°03'510.3
2017-Oct-15 02:30N 50°33' E 000°05'510.8
2017-Oct-15 02:00N 50°34' E 000°13'811.3
2017-Oct-15 01:19N 50°36' E 000°25'411.7
2017-Oct-15 01:00N 50°37' E 000°30'611.8
2017-Oct-15 00:30N 50°40' E 000°38'611.9
2017-Oct-15 00:00N 50°44' E 000°46'611.9
2017-Oct-14 23:30N 50°47' E 000°54'2011.1
2017-Oct-14 21:42N 50°59' E 001°19'210.3
2017-Oct-14 21:29N 51°01' E 001°21'5 9.9
2017-Oct-14 20:59N 51°04' E 001°27'5 9.7
2017-Oct-14 20:30N 51°07' E 001°33'5 9.4
2017-Oct-14 20:00N 51°10' E 001°38'5 9.4
2017-Oct-14 19:30N 51°13' E 001°44'5 9.7
2017-Oct-14 19:00N 51°17' E 001°48'510.2
2017-Oct-14 18:30N 51°22' E 001°52'510.7
2017-Oct-14 18:00N 51°27' E 001°56'510.5
2017-Oct-14 17:30N 51°30' E 002°02'611.8
2017-Oct-14 17:00N 51°34' E 002°09'611.8
2017-Oct-14 16:29N 51°39' E 002°16'6510.3
2017-Oct-14 10:11N 52°02' E 003°54'2 8.2
2017-Oct-14 09:53N 52°01' E 003°57'410.0
2017-Oct-14 09:30N 51°60' E 004°03'5 9.8
2017-Oct-14 09:00N 51°57' E 004°10'5 9.3
2017-Oct-14 08:30N 51°54' E 004°16'4 8.8
2017-Oct-14 08:00N 51°51' E 004°21'5 9.1
2017-Oct-14 07:30N 51°50' E 004°28'4 8.6
2017-Oct-14 07:00N 51°49' E 004°34'3 5.1
2017-Oct-14 06:31N 51°48' E 004°38'0 0.0
2017-Oct-14 06:00N 51°48' E 004°38'0 0.0
2017-Oct-14 05:30N 51°48' E 004°38'0 0.0
2017-Oct-14 05:00N 51°48' E 004°38'0 0.0
2017-Oct-14 04:19N 51°48' E 004°38'0 0.0
2017-Oct-14 03:58N 51°48' E 004°38'0 0.0
2017-Oct-14 03:30N 51°48' E 004°38'0 0.0
2017-Oct-14 03:00N 51°48' E 004°38'0 0.0
2017-Oct-14 02:31N 51°48' E 004°38'0 0.0
2017-Oct-14 02:01N 51°48' E 004°38'0 0.0
2017-Oct-14 01:22N 51°48' E 004°38'0 0.0
2017-Oct-14 00:59N 51°48' E 004°38'0 0.0
2017-Oct-14 00:30N 51°48' E 004°38'0 0.0
2017-Oct-14 00:00N 51°48' E 004°38'0 0.0
2017-Oct-13 23:31N 51°48' E 004°38'0 0.0
2017-Oct-13 23:00N 51°48' E 004°38'0 0.0
2017-Oct-13 22:30N 51°48' E 004°38'0 0.0
2017-Oct-13 21:52N 51°48' E 004°38'0 0.0
2017-Oct-13 21:28N 51°48' E 004°38'0 0.0
2017-Oct-13 20:58N 51°48' E 004°38'0 0.0
2017-Oct-13 20:31N 51°48' E 004°38'0 0.0
2017-Oct-13 19:58N 51°48' E 004°38'0 0.0
2017-Oct-13 19:30N 51°48' E 004°38'0 0.0
2017-Oct-13 19:01N 51°48' E 004°38'0 0.0
2017-Oct-13 18:24N 51°48' E 004°38'0 0.0
2017-Oct-13 18:00N 51°48' E 004°38'0 0.0
2017-Oct-13 17:21N 51°48' E 004°38'0 0.0
2017-Oct-13 17:01N 51°48' E 004°38'0 0.0
2017-Oct-13 16:28N 51°48' E 004°38'0 0.0
2017-Oct-13 15:55N 51°48' E 004°38'0 0.0
2017-Oct-13 15:26N 51°48' E 004°38'0 0.0
2017-Oct-13 15:00N 51°48' E 004°38'0 0.0
2017-Oct-13 14:30N 51°48' E 004°38'0 0.0
2017-Oct-13 14:00N 51°48' E 004°38'0 0.0
2017-Oct-13 13:23N 51°48' E 004°38'0 0.0
2017-Oct-13 13:00N 51°48' E 004°38'0 0.0
2017-Oct-13 12:30N 51°48' E 004°38'0 0.0
2017-Oct-13 11:59N 51°48' E 004°38'0 0.0
2017-Oct-13 11:30N 51°48' E 004°38'0 0.0
2017-Oct-13 10:57N 51°48' E 004°38'0 0.0
2017-Oct-13 10:30N 51°48' E 004°38'0 0.0
2017-Oct-13 10:00N 51°48' E 004°38'0 0.0
2017-Oct-13 09:30N 51°48' E 004°38'0 0.0
2017-Oct-13 09:00N 51°48' E 004°38'0 0.0
2017-Oct-13 08:30N 51°48' E 004°38'0 0.0
2017-Oct-13 08:01N 51°48' E 004°38'0 0.0
2017-Oct-13 07:30N 51°48' E 004°38'0 0.0
2017-Oct-13 06:59N 51°48' E 004°38'0 0.0
2017-Oct-13 06:28N 51°48' E 004°38'0 0.0
2017-Oct-13 05:44N 51°48' E 004°38'0 0.0
2017-Oct-13 05:31N 51°48' E 004°38'0 0.0
2017-Oct-13 05:01N 51°48' E 004°38'0 0.0
2017-Oct-13 04:27N 51°48' E 004°38'0 0.0
2017-Oct-13 03:52N 51°48' E 004°38'0 0.0
2017-Oct-13 03:30N 51°48' E 004°38'0 0.0
2017-Oct-13 02:59N 51°48' E 004°38'0 0.0
2017-Oct-13 02:25N 51°48' E 004°38'0 0.0
2017-Oct-13 01:58N 51°48' E 004°38'0 0.0
2017-Oct-13 01:28N 51°48' E 004°38'0 0.0
2017-Oct-13 01:00N 51°48' E 004°38'0 0.0
2017-Oct-13 00:24N 51°48' E 004°38'0 0.0
2017-Oct-13 00:01N 51°48' E 004°38'0 0.0
2017-Oct-12 23:30N 51°48' E 004°38'1 1.7
2017-Oct-12 23:00N 51°48' E 004°37'510.1
2017-Oct-12 22:30N 51°50' E 004°30'611.2
2017-Oct-12 22:01N 51°51' E 004°21'510.0
2017-Oct-12 21:30N 51°55' E 004°15'510.7
2017-Oct-12 21:00N 51°58' E 004°08'510.9
2017-Oct-12 20:30N 51°60' E 003°60'612.6
2017-Oct-12 20:00N 52°00' E 003°50'5912.0
2017-Oct-12 15:05N 51°35' E 002°23'110.6
2017-Oct-12 15:00N 51°35' E 002°22'510.0
2017-Oct-12 14:30N 51°31' E 002°16'5 9.5
2017-Oct-12 14:00N 51°28' E 002°11'5 9.2
2017-Oct-12 13:29N 51°24' E 002°06'4 8.5
2017-Oct-12 12:59N 51°24' E 001°59'510.2
2017-Oct-12 12:30N 51°26' E 001°52'510.0
2017-Oct-12 12:00N 51°28' E 001°45'510.2
2017-Oct-12 11:30N 51°28' E 001°37'510.5
2017-Oct-12 11:00N 51°28' E 001°28'911.7
2017-Oct-12 10:15N 51°29' E 001°14'311.6
2017-Oct-12 10:00N 51°29' E 001°10'510.5
2017-Oct-12 09:30N 51°29' E 001°01'2 0.0
2017-Oct-10 09:05N 51°30' E 001°04'1 9.1
2017-Oct-10 09:00N 51°30' E 001°05'4 8.9
2017-Oct-10 08:30N 51°29' E 001°12'5 8.5
2017-Oct-10 07:52N 51°28' E 001°21'3 8.1
2017-Oct-10 07:30N 51°27' E 001°25'4 8.5
2017-Oct-10 07:00N 51°25' E 001°31'4 7.5
2017-Oct-10 06:30N 51°23' E 001°36'4 7.2
2017-Oct-10 06:00N 51°22' E 001°41'3 5.3
2017-Oct-10 05:30N 51°22' E 001°45'4 7.8
2017-Oct-10 05:00N 51°18' E 001°42'4 8.4
2017-Oct-10 04:30N 51°15' E 001°39'4 8.2
2017-Oct-10 04:00N 51°11' E 001°38'5 9.5
2017-Oct-10 03:30N 51°06' E 001°41'  

Dump ship's entire track history